Time;durP1;ratioP1;P1;durP2;ratioP2;P2;SDS_P1;SDS_P2;PMS_P1;PMS_P2;Temp;Humidity;BMP_temperature;BMP_pressure;BME280_temperature;BME280_humidity;BME280_pressure;Samples;Min_cycle;Max_cycle;Signal;HPM_P1;HPM_P2
2023/08/23 00:01:06;;;;;;;;;;;30.00;82.20;;;;;;5027362;28;42938;-81
2023/08/23 00:03:32;;;;;;;;;;;29.90;82.00;;;;;;5027349;28;42950;-81
2023/08/23 00:05:57;;;;;;;;;;;30.00;82.20;;;;;;5027521;28;42974;-80
2023/08/23 00:08:23;;;;;;;;;;;30.10;82.10;;;;;;5025481;28;43651;-82
2023/08/23 00:10:54;;;;;;;;;;;30.00;82.00;;;;;;5027441;28;42993;-81
2023/08/23 00:13:20;;;;;;;;;;;30.30;80.10;;;;;;5026975;28;43882;-87
2023/08/23 00:15:46;;;;;;;;;;;30.20;82.10;;;;;;5026954;28;42951;-82
2023/08/23 00:18:11;;;;;;;;;;;29.10;81.30;;;;;;5025590;28;42962;-82
2023/08/23 00:20:37;;;;;;;;;;;30.10;82.00;;;;;;5025277;28;42904;-85
2023/08/23 00:23:02;;;;;;;;;;;30.10;81.90;;;;;;5019520;28;43732;-82
2023/08/23 00:25:28;;;;;;;;;;;30.10;81.90;;;;;;5026462;28;42880;-85
2023/08/23 00:27:53;;;;;;;;;;;30.10;81.80;;;;;;5026385;28;43520;-86
2023/08/23 00:30:19;;;;;;;;;;;30.40;82.00;;;;;;5026496;28;42835;-83
2023/08/23 00:32:44;;;;;;;;;;;30.10;81.80;;;;;;5025213;28;43001;-82
2023/08/23 00:35:10;;;;;;;;;;;30.10;81.80;;;;;;5027273;28;42815;-86
2023/08/23 00:37:35;;;;;;;;;;;29.50;81.00;;;;;;5023121;28;42942;-86
2023/08/23 00:40:01;;;;;;;;;;;30.10;81.30;;;;;;5024852;28;42925;-81
2023/08/23 00:42:26;;;;;;;;;;;30.00;81.40;;;;;;5023951;28;42941;-83
2023/08/23 00:44:52;;;;;;;;;;;30.20;81.60;;;;;;5022454;28;42990;-83
2023/08/23 00:47:17;;;;;;;;;;;30.10;82.00;;;;;;5024389;28;43662;-79
2023/08/23 00:49:45;;;;;;;;;;;30.00;81.50;;;;;;5023808;28;43589;-82
2023/08/23 00:52:11;;;;;;;;;;;30.00;81.50;;;;;;5024231;28;43560;-81
2023/08/23 00:54:36;;;;;;;;;;;30.00;81.90;;;;;;5022324;28;43049;-82
2023/08/23 00:57:02;;;;;;;;;;;30.00;81.50;;;;;;5024757;28;43454;-83
2023/08/23 00:59:29;;;;;;;;;;;30.00;81.70;;;;;;5025545;28;42883;-81
2023/08/23 01:01:55;;;;;;;;;;;30.30;82.00;;;;;;5025867;28;43642;-80
2023/08/23 01:04:20;;;;;;;;;;;30.10;81.50;;;;;;5026089;28;42930;-85
2023/08/23 01:07:10;;;;;;;;;;;30.10;81.60;;;;;;5025974;28;43798;-81
2023/08/23 01:09:55;;;;;;;;;;;30.00;79.40;;;;;;5019432;28;43046;-83
2023/08/23 01:12:20;;;;;;;;;;;;;;;;;;5006568;28;43049;-83
2023/08/23 01:14:52;;;;;;;;;;;30.10;82.00;;;;;;5007276;28;42932;-87
2023/08/23 01:17:19;;;;;;;;;;;30.00;79.80;;;;;;5025069;28;42977;-82
2023/08/23 01:19:45;;;;;;;;;;;30.00;82.00;;;;;;5024772;28;43080;-82
2023/08/23 01:22:13;;;;;;;;;;;30.00;82.20;;;;;;5024160;28;43016;-85
2023/08/23 01:24:39;;;;;;;;;;;29.90;82.20;;;;;;5025647;28;43019;-82
2023/08/23 01:27:05;;;;;;;;;;;29.80;82.10;;;;;;5025580;28;43875;-82
2023/08/23 01:29:30;;;;;;;;;;;29.90;82.20;;;;;;5017906;28;43138;-82
2023/08/23 01:32:04;;;;;;;;;;;29.90;82.10;;;;;;5025315;28;43608;-82
2023/08/23 01:34:31;;;;;;;;;;;30.10;82.00;;;;;;5010651;28;42933;-85
2023/08/23 01:36:58;;;;;;;;;;;30.00;81.90;;;;;;5005744;28;42900;-82
2023/08/23 01:39:25;;;;;;;;;;;30.00;82.00;;;;;;5012649;28;42959;-86
2023/08/23 01:41:50;;;;;;;;;;;29.90;82.30;;;;;;5025042;28;42998;-87
2023/08/23 01:44:16;;;;;;;;;;;29.80;82.40;;;;;;5025617;28;43033;-82
2023/08/23 01:46:41;;;;;;;;;;;29.80;82.40;;;;;;5011577;28;42987;-82
2023/08/23 01:49:07;;;;;;;;;;;29.90;82.30;;;;;;5010197;28;42999;-84
2023/08/23 01:51:33;;;;;;;;;;;29.60;82.20;;;;;;5025341;28;43186;-85
2023/08/23 01:53:58;;;;;;;;;;;29.90;82.50;;;;;;5024945;28;42997;-85
2023/08/23 01:56:26;;;;;;;;;;;29.90;80.00;;;;;;5024086;28;64301;-82
2023/08/23 01:58:51;;;;;;;;;;;30.00;82.40;;;;;;5012333;28;43033;-82
2023/08/23 02:01:17;;;;;;;;;;;30.00;82.40;;;;;;5025426;28;43329;-84
2023/08/23 02:03:42;;;;;;;;;;;29.90;82.20;;;;;;5025569;28;42855;-81
2023/08/23 02:06:08;;;;;;;;;;;30.00;82.60;;;;;;5025234;28;42887;-82
2023/08/23 02:08:34;;;;;;;;;;;29.80;82.60;;;;;;5024927;28;42934;-83
2023/08/23 02:11:00;;;;;;;;;;;29.80;82.70;;;;;;5019146;28;42923;-87
2023/08/23 02:13:25;;;;;;;;;;;29.80;82.90;;;;;;5024991;28;42852;-86
2023/08/23 02:15:51;;;;;;;;;;;29.70;83.20;;;;;;5025032;28;43666;-82
2023/08/23 02:18:17;;;;;;;;;;;29.70;83.60;;;;;;5023003;28;42971;-83
2023/08/23 02:20:42;;;;;;;;;;;29.60;83.90;;;;;;5023138;28;43593;-81
2023/08/23 02:23:08;;;;;;;;;;;29.60;84.30;;;;;;5022029;28;42949;-85
2023/08/23 02:25:33;;;;;;;;;;;29.60;84.10;;;;;;5023468;28;44563;-85
2023/08/23 02:27:59;;;;;;;;;;;29.50;84.30;;;;;;5024701;28;42823;-81
2023/08/23 02:30:24;;;;;;;;;;;29.60;84.50;;;;;;5024608;28;42866;-87
2023/08/23 02:32:50;;;;;;;;;;;29.50;84.50;;;;;;5024444;28;42924;-86
2023/08/23 02:35:15;;;;;;;;;;;29.40;84.70;;;;;;5024701;28;43621;-81
2023/08/23 02:37:41;;;;;;;;;;;29.50;85.10;;;;;;5024845;28;42947;-82
2023/08/23 02:40:07;;;;;;;;;;;29.40;85.00;;;;;;5024249;28;42947;-86
2023/08/23 02:42:32;;;;;;;;;;;;;;;;;;5024201;28;42993;-85
2023/08/23 02:44:58;;;;;;;;;;;29.80;85.10;;;;;;5024352;28;43578;-83
2023/08/23 02:47:23;;;;;;;;;;;29.50;84.60;;;;;;5024368;28;42938;-82
2023/08/23 02:49:49;;;;;;;;;;;29.60;84.40;;;;;;5021846;28;44515;-82
2023/08/23 02:52:14;;;;;;;;;;;29.70;84.30;;;;;;5024352;28;43009;-81
2023/08/23 02:54:40;;;;;;;;;;;29.70;84.00;;;;;;5024458;28;43847;-81
2023/08/23 02:57:05;;;;;;;;;;;29.70;83.90;;;;;;5024614;28;42910;-88
2023/08/23 02:59:31;;;;;;;;;;;29.60;83.90;;;;;;5024121;28;43072;-87
2023/08/23 03:01:56;;;;;;;;;;;29.60;83.70;;;;;;5020347;28;43029;-87
2023/08/23 03:04:22;;;;;;;;;;;29.60;83.90;;;;;;5024142;28;43950;-85
2023/08/23 03:06:47;;;;;;;;;;;29.70;83.70;;;;;;5024577;28;42758;-86
2023/08/23 03:09:13;;;;;;;;;;;29.60;83.60;;;;;;5023973;28;43092;-82
2023/08/23 03:11:39;;;;;;;;;;;29.60;83.70;;;;;;5023215;28;42767;-83
2023/08/23 03:14:04;;;;;;;;;;;29.60;83.80;;;;;;5021906;28;43036;-82
2023/08/23 03:16:30;;;;;;;;;;;29.70;83.80;;;;;;5023645;28;43361;-86
2023/08/23 03:18:55;;;;;;;;;;;29.70;84.20;;;;;;5021816;28;45629;-82
2023/08/23 03:21:21;;;;;;;;;;;29.50;84.30;;;;;;5024892;28;42994;-84
2023/08/23 03:23:46;;;;;;;;;;;29.60;84.50;;;;;;5027167;28;43743;-84
2023/08/23 03:26:12;;;;;;;;;;;29.50;84.50;;;;;;5026121;28;42815;-81
2023/08/23 03:28:37;;;;;;;;;;;29.60;84.60;;;;;;5026645;28;42796;-82
2023/08/23 03:31:03;;;;;;;;;;;29.50;84.70;;;;;;5027059;28;42938;-85
2023/08/23 03:33:29;;;;;;;;;;;29.40;84.50;;;;;;5026424;28;42891;-87
2023/08/23 03:35:55;;;;;;;;;;;29.50;84.70;;;;;;5026468;28;43034;-81
2023/08/23 03:38:20;;;;;;;;;;;29.60;84.50;;;;;;5026492;28;43069;-84
2023/08/23 03:40:46;;;;;;;;;;;29.60;84.30;;;;;;5026128;28;42961;-82
2023/08/23 03:43:11;;;;;;;;;;;29.60;84.10;;;;;;5025799;28;43410;-82
2023/08/23 03:45:44;;;;;;;;;;;29.60;84.30;;;;;;5027448;28;42862;-83
2023/08/23 03:48:10;;;;;;;;;;;29.60;84.30;;;;;;5026571;28;43123;-83
2023/08/23 03:50:35;;;;;;;;;;;29.60;84.50;;;;;;5038190;28;42997;-82
2023/08/23 03:53:01;;;;;;;;;;;29.50;84.40;;;;;;5025672;28;42925;-82
2023/08/23 03:55:26;;;;;;;;;;;29.50;84.50;;;;;;5026506;28;42947;-83
2023/08/23 03:57:52;;;;;;;;;;;29.40;84.70;;;;;;5026312;28;43779;-82
2023/08/23 04:00:17;;;;;;;;;;;29.50;85.20;;;;;;5026711;28;42882;-82
2023/08/23 04:02:43;;;;;;;;;;;29.40;84.90;;;;;;5026178;28;42855;-83
2023/08/23 04:05:11;;;;;;;;;;;29.40;84.60;;;;;;5026353;28;42963;-86
2023/08/23 04:07:37;;;;;;;;;;;29.50;84.40;;;;;;5025594;28;43044;-88
2023/08/23 04:10:03;;;;;;;;;;;29.40;84.30;;;;;;5025423;28;42999;-86
2023/08/23 04:12:29;;;;;;;;;;;29.40;84.60;;;;;;5025305;28;43069;-87
2023/08/23 04:14:55;;;;;;;;;;;29.40;84.60;;;;;;5026007;28;42894;-87
2023/08/23 04:17:20;;;;;;;;;;;29.40;84.80;;;;;;5026398;28;42965;-87
2023/08/23 04:19:46;;;;;;;;;;;29.30;84.70;;;;;;5025611;28;43033;-83
2023/08/23 04:22:11;;;;;;;;;;;29.50;85.00;;;;;;5026069;28;43711;-82
2023/08/23 04:24:37;;;;;;;;;;;29.30;84.80;;;;;;5026306;28;42986;-86
2023/08/23 04:27:02;;;;;;;;;;;29.50;84.70;;;;;;5026073;28;43012;-82
2023/08/23 04:29:28;;;;;;;;;;;29.60;84.80;;;;;;5026701;28;43014;-86
2023/08/23 04:31:53;;;;;;;;;;;29.50;85.00;;;;;;5026608;28;43711;-86
2023/08/23 04:34:19;;;;;;;;;;;29.40;85.00;;;;;;5026302;28;42830;-87
2023/08/23 04:36:44;;;;;;;;;;;29.40;85.10;;;;;;5025176;28;43488;-87
2023/08/23 04:39:10;;;;;;;;;;;29.50;85.10;;;;;;5026530;28;42959;-85
2023/08/23 04:41:36;;;;;;;;;;;29.40;85.10;;;;;;5026826;28;43578;-85
2023/08/23 04:44:02;;;;;;;;;;;29.40;85.10;;;;;;5026763;28;42900;-82
2023/08/23 04:46:27;;;;;;;;;;;29.20;85.20;;;;;;5025433;28;43451;-81
2023/08/23 04:48:53;;;;;;;;;;;29.30;85.10;;;;;;5026648;28;42887;-82
2023/08/23 04:51:18;;;;;;;;;;;29.30;85.00;;;;;;5025880;28;43380;-82
2023/08/23 04:53:44;;;;;;;;;;;29.30;84.90;;;;;;5025685;28;42955;-87
2023/08/23 04:56:09;;;;;;;;;;;29.20;84.80;;;;;;5025781;28;43037;-82
2023/08/23 04:58:35;;;;;;;;;;;29.30;85.00;;;;;;5026340;28;42946;-81
2023/08/23 05:01:04;;;;;;;;;;;29.20;84.70;;;;;;5025386;28;42925;-82
2023/08/23 05:03:30;;;;;;;;;;;29.40;82.00;;;;;;5024792;28;43119;-82
2023/08/23 05:05:56;;;;;;;;;;;29.40;84.30;;;;;;5025318;28;43569;-82
2023/08/23 05:08:21;;;;;;;;;;;29.60;84.20;;;;;;5024903;28;42935;-82
2023/08/23 05:10:50;;;;;;;;;;;29.60;84.30;;;;;;5025749;28;42964;-83
2023/08/23 05:13:16;;;;;;;;;;;29.60;82.60;;;;;;5025775;28;42851;-82
2023/08/23 05:15:41;;;;;;;;;;;29.50;84.60;;;;;;5022104;28;43444;-86
2023/08/23 05:18:07;;;;;;;;;;;29.40;84.70;;;;;;5024717;28;42943;-87
2023/08/23 05:20:32;;;;;;;;;;;29.50;85.00;;;;;;5024108;28;43041;-86
2023/08/23 05:22:58;;;;;;;;;;;29.60;84.90;;;;;;5025340;28;42918;-87
2023/08/23 05:25:23;;;;;;;;;;;29.60;84.70;;;;;;5024784;28;43002;-82
2023/08/23 05:27:49;;;;;;;;;;;29.60;84.60;;;;;;5025051;28;43051;-82
2023/08/23 05:30:14;;;;;;;;;;;29.70;84.60;;;;;;5024516;28;42953;-81
2023/08/23 05:32:40;;;;;;;;;;;29.70;84.40;;;;;;5024656;28;43037;-87
2023/08/23 05:35:07;;;;;;;;;;;29.80;84.60;;;;;;5025224;28;42944;-82
2023/08/23 05:37:32;;;;;;;;;;;29.90;84.40;;;;;;5025376;28;42971;-85
2023/08/23 05:39:58;;;;;;;;;;;29.80;84.50;;;;;;5025188;28;43866;-87
2023/08/23 05:42:24;;;;;;;;;;;29.70;84.40;;;;;;5024541;28;43005;-84
2023/08/23 05:44:50;;;;;;;;;;;29.70;84.60;;;;;;5023855;28;43036;-83
2023/08/23 05:47:15;;;;;;;;;;;29.70;84.70;;;;;;5024560;28;42957;-87
2023/08/23 05:49:42;;;;;;;;;;;29.70;84.80;;;;;;5023545;28;42947;-83
2023/08/23 05:52:08;;;;;;;;;;;29.80;84.70;;;;;;5023095;28;43089;-85
2023/08/23 05:54:33;;;;;;;;;;;29.80;84.40;;;;;;5023940;28;43014;-82
2023/08/23 05:56:59;;;;;;;;;;;29.80;84.40;;;;;;5024950;28;42887;-86
2023/08/23 05:59:26;;;;;;;;;;;29.90;84.10;;;;;;5023883;28;43492;-86
2023/08/23 06:01:51;;;;;;;;;;;29.90;84.60;;;;;;5023048;28;43595;-86
2023/08/23 06:04:16;;;;;;;;;;;29.90;84.20;;;;;;5023899;28;43700;-84
2023/08/23 06:06:42;;;;;;;;;;;29.80;84.00;;;;;;5024578;28;42917;-87
2023/08/23 06:09:07;;;;;;;;;;;29.90;84.00;;;;;;5024781;28;42923;-87
2023/08/23 06:11:33;;;;;;;;;;;30.00;84.00;;;;;;5023996;28;43044;-84
2023/08/23 06:13:58;;;;;;;;;;;30.00;84.40;;;;;;5023795;28;43394;-87
2023/08/23 06:16:24;;;;;;;;;;;30.00;84.80;;;;;;5023925;28;43085;-86
2023/08/23 06:18:50;;;;;;;;;;;30.40;84.80;;;;;;5024077;28;43529;-87
2023/08/23 06:21:15;;;;;;;;;;;30.10;84.30;;;;;;5024897;28;42979;-86
2023/08/23 06:23:43;;;;;;;;;;;30.00;84.40;;;;;;5024157;28;43062;-83
2023/08/23 06:26:09;;;;;;;;;;;30.10;84.50;;;;;;5021305;28;43138;-83
2023/08/23 06:28:35;;;;;;;;;;;30.10;84.50;;;;;;5021831;28;42996;-85
2023/08/23 06:31:00;;;;;;;;;;;30.10;84.80;;;;;;5023252;28;42970;-87
2023/08/23 06:33:27;;;;;;;;;;;30.10;84.90;;;;;;5022100;28;43567;-82
2023/08/23 06:35:52;;;;;;;;;;;30.10;85.00;;;;;;5023305;28;42904;-83
2023/08/23 06:38:19;;;;;;;;;;;;;;;;;;5022416;28;44523;-87
2023/08/23 06:40:45;;;;;;;;;;;30.10;84.20;;;;;;5024719;28;42855;-86
2023/08/23 06:43:16;;;;;;;;;;;30.00;85.10;;;;;;5022264;28;43049;-83
2023/08/23 06:45:42;;;;;;;;;;;30.10;84.90;;;;;;5017382;28;42919;-84
2023/08/23 06:48:07;;;;;;;;;;;30.10;85.30;;;;;;5021229;28;43881;-84
2023/08/23 06:50:34;;;;;;;;;;;30.10;85.10;;;;;;5021829;28;42990;-87
2023/08/23 06:53:00;;;;;;;;;;;30.10;84.90;;;;;;5023557;28;43035;-88
2023/08/23 06:55:27;;;;;;;;;;;30.20;84.90;;;;;;5020620;28;43024;-83
2023/08/23 06:57:52;;;;;;;;;;;30.30;85.30;;;;;;5027971;28;42937;-82
2023/08/23 07:00:18;;;;;;;;;;;30.20;85.60;;;;;;5028232;28;43159;-85
2023/08/23 07:02:43;;;;;;;;;;;30.20;85.40;;;;;;5028245;28;43722;-84
2023/08/23 07:05:09;;;;;;;;;;;30.30;85.30;;;;;;5025230;28;42916;-86
2023/08/23 07:07:35;;;;;;;;;;;30.20;85.00;;;;;;5028168;28;42957;-85
2023/08/23 07:10:00;;;;;;;;;;;30.30;84.70;;;;;;5028584;28;43469;-88
2023/08/23 07:12:27;;;;;;;;;;;30.40;84.50;;;;;;5028730;28;43374;-84
2023/08/23 07:14:53;;;;;;;;;;;30.40;84.40;;;;;;5027271;28;43167;-87
2023/08/23 07:17:19;;;;;;;;;;;30.50;84.40;;;;;;5029920;28;43130;-89
2023/08/23 07:19:48;;;;;;;;;;;;;;;;;;5028793;28;43073;-86
2023/08/23 07:22:13;;;;;;;;;;;30.60;83.40;;;;;;5029107;28;43010;-83
2023/08/23 07:24:39;;;;;;;;;;;30.50;84.00;;;;;;5027481;28;43032;-83
2023/08/23 07:27:04;;;;;;;;;;;30.50;83.80;;;;;;5028903;28;43393;-87
2023/08/23 07:29:30;;;;;;;;;;;;;;;;;;5029798;28;42823;-83
2023/08/23 07:31:56;;;;;;;;;;;;;;;;;;5024968;28;43694;-85
2023/08/23 07:34:22;;;;;;;;;;;30.50;83.80;;;;;;5029016;28;43034;-88
2023/08/23 07:36:47;;;;;;;;;;;30.50;83.70;;;;;;5028472;28;43479;-83
2023/08/23 07:39:13;;;;;;;;;;;30.40;83.40;;;;;;5027178;28;42980;-86
2023/08/23 07:41:38;;;;;;;;;;;30.60;83.60;;;;;;5023140;28;42975;-88
2023/08/23 07:44:04;;;;;;;;;;;;;;;;;;5026389;28;43058;-85
2023/08/23 07:46:30;;;;;;;;;;;30.40;83.20;;;;;;5027114;28;44639;-83
2023/08/23 07:48:55;;;;;;;;;;;30.60;83.40;;;;;;5025701;28;42974;-88
2023/08/23 07:51:21;;;;;;;;;;;30.50;83.30;;;;;;5028271;28;43713;-83
2023/08/23 07:53:48;;;;;;;;;;;30.60;83.40;;;;;;5025962;28;44075;-85
2023/08/23 07:56:13;;;;;;;;;;;30.50;80.80;;;;;;5025045;28;44317;-82
2023/08/23 07:58:40;;;;;;;;;;;30.50;83.30;;;;;;5024881;28;43112;-85
2023/08/23 08:01:06;;;;;;;;;;;30.50;83.10;;;;;;5026132;28;43449;-86
2023/08/23 08:03:31;;;;;;;;;;;30.40;83.20;;;;;;5024502;28;42969;-85
2023/08/23 08:05:57;;;;;;;;;;;30.50;83.20;;;;;;5026731;28;43829;-83
2023/08/23 08:08:22;;;;;;;;;;;30.50;83.30;;;;;;5026466;28;42989;-85
2023/08/23 08:10:49;;;;;;;;;;;30.50;83.10;;;;;;5024942;28;42960;-83
2023/08/23 08:13:14;;;;;;;;;;;30.30;83.00;;;;;;5024761;28;42923;-82
2023/08/23 08:15:40;;;;;;;;;;;30.50;83.10;;;;;;5021611;28;43488;-82
2023/08/23 08:18:05;;;;;;;;;;;30.60;82.90;;;;;;5024978;28;42836;-82
2023/08/23 08:20:31;;;;;;;;;;;30.40;82.70;;;;;;5022612;28;43048;-82
2023/08/23 08:22:57;;;;;;;;;;;30.70;83.00;;;;;;5023325;28;43147;-83
2023/08/23 08:25:22;;;;;;;;;;;30.50;82.80;;;;;;5020036;28;43321;-82
2023/08/23 08:27:51;;;;;;;;;;;30.60;82.70;;;;;;5022416;28;43072;-84
2023/08/23 08:30:16;;;;;;;;;;;30.60;80.20;;;;;;5017236;28;45129;-84
2023/08/23 08:32:42;;;;;;;;;;;30.50;82.70;;;;;;5022370;28;43029;-83
2023/08/23 08:35:08;;;;;;;;;;;30.60;82.70;;;;;;5023092;28;42984;-84
2023/08/23 08:37:33;;;;;;;;;;;30.60;82.60;;;;;;5025683;28;42996;-82
2023/08/23 08:39:59;;;;;;;;;;;30.50;82.50;;;;;;5024162;28;43712;-82
2023/08/23 08:42:26;;;;;;;;;;;;;;;;;;5023340;28;42943;-84
2023/08/23 08:44:52;;;;;;;;;;;30.70;81.70;;;;;;5020616;28;45663;-81
2023/08/23 08:47:17;;;;;;;;;;;30.60;82.40;;;;;;5024647;28;43016;-82
2023/08/23 08:49:43;;;;;;;;;;;30.60;82.40;;;;;;5022598;28;43160;-84
2023/08/23 08:52:10;;;;;;;;;;;30.70;82.50;;;;;;5023561;28;42859;-84
2023/08/23 08:54:36;;;;;;;;;;;;;;;;;;5025256;28;43706;-83
2023/08/23 08:57:03;;;;;;;;;;;30.70;82.70;;;;;;5026086;28;42965;-82
2023/08/23 08:59:29;;;;;;;;;;;30.50;82.50;;;;;;5025175;28;43025;-84
2023/08/23 09:01:57;;;;;;;;;;;30.60;82.60;;;;;;5025648;28;42874;-81
2023/08/23 09:04:23;;;;;;;;;;;30.70;82.70;;;;;;5024559;28;44659;-81
2023/08/23 09:06:49;;;;;;;;;;;30.60;82.60;;;;;;5023579;28;43203;-84
2023/08/23 09:09:14;;;;;;;;;;;30.40;82.50;;;;;;5028984;28;43961;-84
2023/08/23 09:11:40;;;;;;;;;;;30.60;82.70;;;;;;5024160;28;42957;-82
2023/08/23 09:14:15;;;;;;;;;;;30.60;82.70;;;;;;5025336;28;43009;-82
2023/08/23 09:16:41;;;;;;;;;;;30.70;80.80;;;;;;5025193;28;42991;-85
2023/08/23 09:19:13;;;;;;;;;;;30.60;82.80;;;;;;5024600;28;43259;-82
2023/08/23 09:21:42;;;;;;;;;;;30.70;80.40;;;;;;5026011;28;42864;-84
2023/08/23 09:24:08;;;;;;;;;;;30.70;80.40;;;;;;5024343;28;45280;-86
2023/08/23 09:26:33;;;;;;;;;;;30.50;83.10;;;;;;5025697;28;43012;-86
2023/08/23 09:29:00;;;;;;;;;;;30.50;83.10;;;;;;5024016;28;44301;-83
2023/08/23 09:31:26;;;;;;;;;;;30.50;83.20;;;;;;5025813;28;42780;-84
2023/08/23 09:33:52;;;;;;;;;;;30.70;83.30;;;;;;5025635;28;43024;-82
2023/08/23 09:36:18;;;;;;;;;;;;;;;;;;5025543;28;42946;-84
2023/08/23 09:38:44;;;;;;;;;;;30.70;83.40;;;;;;5025694;28;42989;-85
2023/08/23 09:41:09;;;;;;;;;;;30.60;83.20;;;;;;5025421;28;42962;-82
2023/08/23 09:43:36;;;;;;;;;;;30.60;83.30;;;;;;5025371;28;42850;-82
2023/08/23 09:46:02;;;;;;;;;;;30.80;83.40;;;;;;5026195;28;42923;-85
2023/08/23 09:48:29;;;;;;;;;;;30.70;83.40;;;;;;5025526;28;43130;-83
2023/08/23 09:50:55;;;;;;;;;;;30.80;83.30;;;;;;5026057;28;42926;-84
2023/08/23 09:53:22;;;;;;;;;;;30.70;83.40;;;;;;5025632;28;43037;-82
2023/08/23 09:55:48;;;;;;;;;;;30.70;83.40;;;;;;5025305;28;42851;-82
2023/08/23 09:58:14;;;;;;;;;;;30.60;83.40;;;;;;5025417;28;43435;-83
2023/08/23 10:00:40;;;;;;;;;;;30.70;83.60;;;;;;5025740;28;43005;-83
2023/08/23 10:03:07;;;;;;;;;;;30.70;83.70;;;;;;5025539;28;43456;-83
2023/08/23 10:05:34;;;;;;;;;;;30.70;83.60;;;;;;5025561;28;42966;-85
2023/08/23 10:08:01;;;;;;;;;;;30.70;83.70;;;;;;5025115;28;43947;-83
2023/08/23 10:10:29;;;;;;;;;;;30.80;83.70;;;;;;5025291;28;43001;-84
2023/08/23 10:12:55;;;;;;;;;;;30.90;83.70;;;;;;5023844;28;44266;-83
2023/08/23 10:15:32;;;;;;;;;;;30.80;83.60;;;;;;5025577;28;42918;-84
2023/08/23 10:17:59;;;;;;;;;;;30.70;81.10;;;;;;5024674;28;43674;-82
2023/08/23 10:20:25;;;;;;;;;;;30.70;83.70;;;;;;5024409;28;42946;-83
2023/08/23 10:22:54;;;;;;;;;;;30.80;83.90;;;;;;5024602;28;43745;-82
2023/08/23 10:25:20;;;;;;;;;;;31.00;82.00;;;;;;5024929;28;42998;-84
2023/08/23 10:27:46;;;;;;;;;;;30.80;84.00;;;;;;5024651;28;42922;-83
2023/08/23 10:30:20;;;;;;;;;;;30.70;84.00;;;;;;5022360;28;42948;-83
2023/08/23 10:32:46;;;;;;;;;;;30.60;81.30;;;;;;5023397;28;43929;-83
2023/08/23 10:35:41;;;;;;;;;;;30.80;84.00;;;;;;5024985;28;43144;-83
2023/08/23 10:38:07;;;;;;;;;;;31.20;82.20;;;;;;5023974;28;43101;-83
2023/08/23 10:40:33;;;;;;;;;;;30.80;84.00;;;;;;5025066;28;42760;-83
2023/08/23 10:43:03;;;;;;;;;;;30.70;84.10;;;;;;5022481;28;45019;-83
2023/08/23 10:45:28;;;;;;;;;;;30.80;84.10;;;;;;5023540;28;43008;-83
2023/08/23 10:47:54;;;;;;;;;;;30.70;84.00;;;;;;5023449;28;43494;-83
2023/08/23 10:50:20;;;;;;;;;;;30.60;83.80;;;;;;5024799;28;42796;-82
2023/08/23 10:52:49;;;;;;;;;;;30.80;83.80;;;;;;5024073;28;42858;-85
2023/08/23 10:55:15;;;;;;;;;;;30.70;81.30;;;;;;5016872;28;43016;-82
2023/08/23 10:57:40;;;;;;;;;;;30.80;84.20;;;;;;5024509;28;43736;-84
2023/08/23 11:00:06;;;;;;;;;;;30.80;83.90;;;;;;5024615;28;43040;-83
2023/08/23 11:02:32;;;;;;;;;;;30.80;83.70;;;;;;5024134;28;43411;-86
2023/08/23 11:04:58;;;;;;;;;;;30.80;83.90;;;;;;5023239;28;43048;-84
2023/08/23 11:07:25;;;;;;;;;;;30.70;83.90;;;;;;5023041;28;43671;-83
2023/08/23 11:09:51;;;;;;;;;;;30.90;84.10;;;;;;5025444;28;42961;-87
2023/08/23 11:12:16;;;;;;;;;;;30.80;83.90;;;;;;5021098;28;44585;-86
2023/08/23 11:14:42;;;;;;;;;;;30.80;84.60;;;;;;5024144;28;42938;-84
2023/08/23 11:17:08;;;;;;;;;;;30.80;84.30;;;;;;5033507;28;42910;-87
2023/08/23 11:19:33;;;;;;;;;;;30.90;84.70;;;;;;5026617;28;43861;-84
2023/08/23 11:21:59;;;;;;;;;;;30.90;84.60;;;;;;5024681;28;44003;-84
2023/08/23 11:24:25;;;;;;;;;;;30.90;84.90;;;;;;5022900;28;43025;-83
2023/08/23 11:26:50;;;;;;;;;;;30.90;84.70;;;;;;5022776;28;43614;-87
2023/08/23 11:29:16;;;;;;;;;;;30.90;84.50;;;;;;5024539;28;43029;-83
2023/08/23 11:31:41;;;;;;;;;;;30.90;84.30;;;;;;5022066;28;44317;-83
2023/08/23 11:34:07;;;;;;;;;;;30.80;84.50;;;;;;5023310;28;43104;-83
2023/08/23 11:36:34;;;;;;;;;;;30.80;84.20;;;;;;5024182;28;42834;-83
2023/08/23 11:39:00;;;;;;;;;;;30.70;84.30;;;;;;5024364;28;42948;-83
2023/08/23 11:41:26;;;;;;;;;;;30.80;84.20;;;;;;5023573;28;43927;-83
2023/08/23 11:43:52;;;;;;;;;;;30.80;84.10;;;;;;5024646;28;42879;-83
2023/08/23 11:46:18;;;;;;;;;;;30.80;83.90;;;;;;5024566;28;42951;-84
2023/08/23 11:48:43;;;;;;;;;;;30.80;83.90;;;;;;5027528;28;42906;-83
2023/08/23 11:51:09;;;;;;;;;;;30.90;83.80;;;;;;5026470;28;43061;-86
2023/08/23 11:53:34;;;;;;;;;;;30.80;83.80;;;;;;5026683;28;42989;-84
2023/08/23 11:56:00;;;;;;;;;;;30.80;83.80;;;;;;5026173;28;43519;-84
2023/08/23 11:58:25;;;;;;;;;;;30.80;83.90;;;;;;5026824;28;43006;-84
2023/08/23 12:00:53;;;;;;;;;;;30.90;84.00;;;;;;5025313;28;43057;-85
2023/08/23 12:03:19;;;;;;;;;;;31.00;82.10;;;;;;5020439;28;43103;-84
2023/08/23 12:05:44;;;;;;;;;;;30.90;84.20;;;;;;5024177;28;44621;-84
2023/08/23 12:08:10;;;;;;;;;;;30.90;84.00;;;;;;5026199;28;42962;-84
2023/08/23 12:10:35;;;;;;;;;;;31.00;83.70;;;;;;5025148;28;44436;-84
2023/08/23 12:13:01;;;;;;;;;;;30.90;83.50;;;;;;5024898;28;42774;-84
2023/08/23 12:15:27;;;;;;;;;;;;;;;;;;5026050;28;43105;-84
2023/08/23 12:17:54;;;;;;;;;;;31.00;83.30;;;;;;5026279;28;43078;-84
2023/08/23 12:20:19;;;;;;;;;;;30.90;83.10;;;;;;5026265;28;42977;-84
2023/08/23 12:22:46;;;;;;;;;;;31.00;83.20;;;;;;5026021;28;42926;-85
2023/08/23 12:25:12;;;;;;;;;;;31.00;83.10;;;;;;5025578;28;43303;-84
2023/08/23 12:27:37;;;;;;;;;;;31.00;83.00;;;;;;5024061;28;42993;-85
2023/08/23 12:30:03;;;;;;;;;;;31.10;83.00;;;;;;5025572;28;43723;-83
2023/08/23 12:32:28;;;;;;;;;;;31.10;82.90;;;;;;5025457;28;42968;-84
2023/08/23 12:34:54;;;;;;;;;;;31.20;82.80;;;;;;5024845;28;44140;-84
2023/08/23 12:37:19;;;;;;;;;;;31.00;82.60;;;;;;5023884;28;44449;-83
2023/08/23 12:39:45;;;;;;;;;;;30.60;82.20;;;;;;5025566;28;42965;-84
2023/08/23 12:42:10;;;;;;;;;;;31.00;82.60;;;;;;5024821;28;42860;-83
2023/08/23 12:44:36;;;;;;;;;;;31.00;82.40;;;;;;5032273;28;42949;-83
2023/08/23 12:47:02;;;;;;;;;;;31.10;82.50;;;;;;5028057;28;43068;-83
2023/08/23 12:49:27;;;;;;;;;;;31.00;82.40;;;;;;5025659;28;42849;-82
2023/08/23 12:51:53;;;;;;;;;;;31.10;82.50;;;;;;5026061;28;42792;-84
2023/08/23 12:54:19;;;;;;;;;;;31.00;82.40;;;;;;5023607;28;44132;-84
2023/08/23 12:56:45;;;;;;;;;;;31.10;82.50;;;;;;5024534;28;43081;-83
2023/08/23 12:59:10;;;;;;;;;;;31.10;82.40;;;;;;5024669;28;43481;-85
2023/08/23 13:01:36;;;;;;;;;;;31.10;82.40;;;;;;5025911;28;42900;-84
2023/08/23 13:04:02;;;;;;;;;;;31.10;82.20;;;;;;5024572;28;43455;-83
2023/08/23 13:06:27;;;;;;;;;;;31.10;82.10;;;;;;5024777;28;43061;-83
2023/08/23 13:08:53;;;;;;;;;;;31.20;82.20;;;;;;5022546;28;43482;-82
2023/08/23 13:11:18;;;;;;;;;;;31.10;82.00;;;;;;5025106;28;43091;-84
2023/08/23 13:13:47;;;;;;;;;;;31.10;82.00;;;;;;5022348;28;44135;-83
2023/08/23 13:16:12;;;;;;;;;;;31.20;82.10;;;;;;5024165;28;43013;-83
2023/08/23 13:18:38;;;;;;;;;;;31.10;82.10;;;;;;5028985;28;43351;-86
2023/08/23 13:21:06;;;;;;;;;;;31.10;82.10;;;;;;5032900;28;43058;-90
2023/08/23 13:23:32;;;;;;;;;;;31.10;82.10;;;;;;5024436;28;43008;-89
2023/08/23 13:26:01;;;;;;;;;;;31.20;82.20;;;;;;5024032;28;42929;-88
2023/08/23 13:28:29;;;;;;;;;;;31.20;79.50;;;;;;5023152;28;42962;-89
2023/08/23 13:30:56;;;;;;;;;;;31.20;79.70;;;;;;5023557;28;43000;-88
2023/08/23 13:33:31;;;;;;;;;;;31.20;82.20;;;;;;5025146;28;43079;-86
2023/08/23 13:35:57;;;;;;;;;;;31.30;79.70;;;;;;5019320;28;43152;-88
2023/08/23 13:38:22;;;;;;;;;;;31.00;82.10;;;;;;5014602;28;43123;-88
2023/08/23 13:40:48;;;;;;;;;;;31.30;82.40;;;;;;5017958;28;43048;-87
2023/08/23 13:43:13;;;;;;;;;;;31.20;82.40;;;;;;5022331;28;42986;-88
2023/08/23 13:45:41;;;;;;;;;;;31.30;82.80;;;;;;5021632;28;43167;-88
2023/08/23 13:48:09;;;;;;;;;;;31.30;82.90;;;;;;5025680;28;43527;-89
2023/08/23 13:50:35;;;;;;;;;;;31.20;80.30;;;;;;5022560;28;43040;-88
2023/08/23 13:53:03;;;;;;;;;;;31.20;83.10;;;;;;5024449;28;45455;-89
2023/08/23 13:55:28;;;;;;;;;;;31.30;83.40;;;;;;5022451;28;43069;-88
2023/08/23 13:57:54;;;;;;;;;;;31.20;83.50;;;;;;5018357;28;43269;-88
2023/08/23 14:00:19;;;;;;;;;;;31.10;83.50;;;;;;5026521;28;43092;-86
2023/08/23 14:02:45;;;;;;;;;;;;;;;;;;5021969;28;43117;-88
2023/08/23 14:05:11;;;;;;;;;;;;;;;;;;5018845;28;43104;-86
2023/08/23 14:07:49;;;;;;;;;;;31.10;84.20;;;;;;5020106;28;44541;-85
2023/08/23 14:10:15;;;;;;;;;;;;;;;;;;5023678;28;43062;-88
2023/08/23 14:12:44;;;;;;;;;;;;;;;;;;5024049;28;43039;-85
2023/08/23 14:15:10;;;;;;;;;;;;;;;;;;5020000;28;43180;-87
2023/08/23 14:17:36;;;;;;;;;;;;;;;;;;5021714;28;43871;-88